createdAt,value
2023-03-26T00:00:55.636Z,95767
2023-03-26T00:02:55.713Z,95767
2023-03-26T00:03:55.662Z,95764
2023-03-26T00:04:55.646Z,95764
2023-03-26T00:05:55.898Z,95765
2023-03-26T00:06:55.661Z,95765
2023-03-26T00:07:55.635Z,95764
2023-03-26T00:08:55.676Z,95764
2023-03-26T00:09:55.642Z,95763
2023-03-26T00:11:55.653Z,95757
2023-03-26T00:12:55.659Z,95753
2023-03-26T00:13:55.639Z,95753
2023-03-26T00:14:55.676Z,95755
2023-03-26T00:15:55.869Z,95752
2023-03-26T00:16:55.707Z,95752
2023-03-26T00:17:55.722Z,95749
2023-03-26T00:18:55.697Z,95751
2023-03-26T00:19:55.678Z,95751
2023-03-26T00:20:55.728Z,95751
2023-03-26T00:21:55.686Z,95751
2023-03-26T00:22:55.660Z,95755
2023-03-26T00:23:55.705Z,95754
2023-03-26T00:24:55.693Z,95755
2023-03-26T00:25:56.099Z,95755
2023-03-26T00:26:55.715Z,95755
2023-03-26T00:27:55.690Z,95747
2023-03-26T00:28:55.711Z,95747
2023-03-26T00:29:55.707Z,95747
2023-03-26T00:30:55.720Z,95753
2023-03-26T00:31:55.700Z,95753
2023-03-26T00:32:55.782Z,95751
2023-03-26T00:33:55.870Z,95751
2023-03-26T00:34:55.723Z,95752
2023-03-26T00:35:56.083Z,95753
2023-03-26T00:36:55.722Z,95753
2023-03-26T00:37:55.737Z,95753
2023-03-26T00:38:55.745Z,95751
2023-03-26T00:39:55.703Z,95751
2023-03-26T00:40:55.737Z,95750
2023-03-26T00:41:55.762Z,95748
2023-03-26T00:43:55.738Z,95745
2023-03-26T00:44:55.752Z,95745
2023-03-26T00:45:56.025Z,95745
2023-03-26T00:46:55.768Z,95741
2023-03-26T00:47:55.824Z,95742
2023-03-26T00:48:55.767Z,95743
2023-03-26T00:49:55.765Z,95743
2023-03-26T00:50:55.797Z,95743
2023-03-26T00:51:55.733Z,95740
2023-03-26T00:52:55.927Z,95744
2023-03-26T00:53:55.748Z,95744
2023-03-26T00:54:55.790Z,95743
2023-03-26T00:55:55.914Z,95743
2023-03-26T00:56:55.891Z,95739
2023-03-26T00:57:55.798Z,95739
2023-03-26T00:58:55.834Z,95731
2023-03-26T00:59:55.755Z,95731
2023-03-26T01:00:55.793Z,95731
2023-03-26T01:01:55.784Z,95728
2023-03-26T01:02:55.874Z,95726
2023-03-26T01:04:05.199Z,95726
2023-03-26T01:04:55.804Z,95722
2023-03-26T01:05:55.976Z,95720
2023-03-26T01:07:55.814Z,95722
2023-03-26T01:08:55.853Z,95722
2023-03-26T01:09:55.812Z,95722
2023-03-26T01:10:55.827Z,95717
2023-03-26T01:11:55.842Z,95717
2023-03-26T01:12:55.826Z,95711
2023-03-26T01:13:55.823Z,95711
2023-03-26T01:14:55.803Z,95713
2023-03-26T01:15:56.017Z,95709
2023-03-26T01:16:55.875Z,95707
2023-03-26T01:17:55.878Z,95709
2023-03-26T01:18:55.863Z,95701
2023-03-26T01:19:55.840Z,95703
2023-03-26T01:20:55.844Z,95703
2023-03-26T01:21:55.872Z,95703
2023-03-26T01:22:55.844Z,95700
2023-03-26T01:23:55.853Z,95700
2023-03-26T01:24:55.869Z,95692
2023-03-26T01:25:56.117Z,95691
2023-03-26T01:26:55.844Z,95693
2023-03-26T01:27:55.863Z,95687
2023-03-26T01:28:55.829Z,95682
2023-03-26T01:29:55.905Z,95672
2023-03-26T01:30:55.849Z,95670
2023-03-26T01:31:55.829Z,95670
2023-03-26T01:32:55.970Z,95669
2023-03-26T01:33:55.856Z,95668
2023-03-26T01:34:55.911Z,95665
2023-03-26T01:35:56.045Z,95665
2023-03-26T01:36:55.895Z,95667
2023-03-26T01:37:55.876Z,95667
2023-03-26T01:38:55.883Z,95669
2023-03-26T01:39:55.892Z,95663
2023-03-26T01:40:55.896Z,95660
2023-03-26T01:42:55.927Z,95660
2023-03-26T01:43:55.911Z,95656
2023-03-26T01:44:55.864Z,95656
2023-03-26T01:45:56.146Z,95655
2023-03-26T01:46:56.007Z,95652
2023-03-26T01:47:55.913Z,95648
2023-03-26T01:48:55.894Z,95648
2023-03-26T01:49:55.915Z,95644
2023-03-26T01:50:55.928Z,95642
2023-03-26T01:51:55.895Z,95643
2023-03-26T01:52:55.921Z,95634
2023-03-26T01:53:55.893Z,95637
2023-03-26T01:55:56.280Z,95634
2023-03-26T01:56:55.956Z,95634
2023-03-26T01:57:55.928Z,95626
2023-03-26T01:58:55.950Z,95624
2023-03-26T01:59:55.952Z,95612
2023-03-26T02:00:55.996Z,95602
2023-03-26T02:01:56.082Z,95602
2023-03-26T02:02:56.042Z,95600
2023-03-26T02:04:55.946Z,95594
2023-03-26T02:05:56.132Z,95595
2023-03-26T02:06:55.947Z,95595
2023-03-26T02:07:55.926Z,95598
2023-03-26T02:08:55.967Z,95597
2023-03-26T02:09:55.983Z,95598
2023-03-26T02:10:55.994Z,95590
2023-03-26T02:11:55.946Z,95588
2023-03-26T02:12:55.945Z,95588
2023-03-26T02:13:55.936Z,95585
2023-03-26T02:15:56.189Z,95582
2023-03-26T02:16:55.992Z,95574
2023-03-26T02:17:56.011Z,95574
2023-03-26T02:18:55.987Z,95575
2023-03-26T02:19:55.996Z,95571
2023-03-26T02:20:55.969Z,95571
2023-03-26T02:21:55.965Z,95568
2023-03-26T02:22:55.985Z,95572
2023-03-26T02:23:56.007Z,95561
2023-03-26T02:24:55.980Z,95561
2023-03-26T02:26:56.014Z,95564
2023-03-26T02:29:56.013Z,95551
2023-03-26T02:30:55.989Z,95546
2023-03-26T02:31:56.032Z,95546
2023-03-26T02:32:56.068Z,95546
2023-03-26T02:33:56.016Z,95544
2023-03-26T02:34:56.004Z,95540
2023-03-26T02:35:56.294Z,95539
2023-03-26T02:36:56.032Z,95537
2023-03-26T02:37:56.019Z,95529
2023-03-26T02:38:56.038Z,95529
2023-03-26T02:41:56.051Z,95530
2023-03-26T02:42:56.030Z,95530
2023-03-26T02:43:56.012Z,95522
2023-03-26T02:44:56.050Z,95517
2023-03-26T02:45:56.336Z,95517
2023-03-26T02:46:56.080Z,95517
2023-03-26T02:47:56.087Z,95517
2023-03-26T02:48:56.073Z,95515
2023-03-26T02:49:56.054Z,95509
2023-03-26T02:50:56.037Z,95508
2023-03-26T02:51:56.094Z,95510
2023-03-26T02:52:56.042Z,95510
2023-03-26T02:53:56.050Z,95507
2023-03-26T02:54:56.088Z,95501
2023-03-26T02:55:56.178Z,95501
2023-03-26T02:56:56.109Z,95501
2023-03-26T02:57:56.057Z,95496
2023-03-26T02:58:56.044Z,95497
2023-03-26T02:59:56.113Z,95498
2023-03-26T03:00:56.102Z,95498
2023-03-26T03:01:56.118Z,95494
2023-03-26T03:02:56.153Z,95486
2023-03-26T03:03:56.073Z,95486
2023-03-26T03:04:56.099Z,95480
2023-03-26T03:05:56.365Z,95480
2023-03-26T03:07:56.089Z,95481
2023-03-26T03:08:56.073Z,95481
2023-03-26T03:09:56.130Z,95482
2023-03-26T03:10:56.091Z,95478
2023-03-26T03:11:56.100Z,95478
2023-03-26T03:12:56.091Z,95478
2023-03-26T03:13:56.121Z,95479
2023-03-26T03:14:56.106Z,95478
2023-03-26T03:15:56.311Z,95478
2023-03-26T03:16:56.149Z,95472
2023-03-26T03:17:56.148Z,95475
2023-03-26T03:18:57.810Z,95475
2023-03-26T03:19:56.140Z,95475
2023-03-26T03:20:56.148Z,95475
2023-03-26T03:21:56.162Z,95470
2023-03-26T03:22:56.293Z,95475
2023-03-26T03:23:56.125Z,95471
2023-03-26T03:24:56.116Z,95467
2023-03-26T03:25:56.460Z,95468
2023-03-26T03:26:56.855Z,95456
2023-03-26T03:28:56.134Z,95447
2023-03-26T03:29:56.152Z,95449
2023-03-26T03:30:56.200Z,95451
2023-03-26T03:31:56.163Z,95453
2023-03-26T03:32:56.232Z,95454
2023-03-26T03:33:56.164Z,95454
2023-03-26T03:34:56.174Z,95453
2023-03-26T03:35:56.499Z,95453
2023-03-26T03:37:56.167Z,95450
2023-03-26T03:38:56.164Z,95453
2023-03-26T03:39:56.161Z,95453
2023-03-26T03:40:56.170Z,95452
2023-03-26T03:41:56.180Z,95452
2023-03-26T03:42:56.193Z,95446
2023-03-26T03:43:56.189Z,95444
2023-03-26T03:44:56.209Z,95442
2023-03-26T03:45:56.483Z,95439
2023-03-26T03:46:56.176Z,95441
2023-03-26T03:47:56.271Z,95437
2023-03-26T03:48:56.200Z,95437
2023-03-26T03:49:56.179Z,95438
2023-03-26T03:50:56.244Z,95435
2023-03-26T03:51:56.193Z,95435
2023-03-26T03:52:56.198Z,95431
2023-03-26T03:53:56.207Z,95435
2023-03-26T03:54:56.198Z,95435
2023-03-26T03:56:56.315Z,95432
2023-03-26T03:57:56.219Z,95432
2023-03-26T03:58:56.231Z,95433
2023-03-26T04:00:56.268Z,95428
2023-03-26T04:01:56.233Z,95431
2023-03-26T04:02:56.427Z,95438
2023-03-26T04:03:56.368Z,95438
2023-03-26T04:04:56.231Z,95432
2023-03-26T04:05:56.448Z,95432
2023-03-26T04:06:56.230Z,95432
2023-03-26T04:07:56.220Z,95427
2023-03-26T04:09:56.276Z,95422
2023-03-26T04:10:56.275Z,95422
2023-03-26T04:13:56.265Z,95420
2023-03-26T04:14:56.248Z,95409
2023-03-26T04:15:56.778Z,95403
2023-03-26T04:16:56.249Z,95401
2023-03-26T04:17:56.316Z,95401
2023-03-26T04:18:56.307Z,95393
2023-03-26T04:19:56.248Z,95381
2023-03-26T04:20:56.299Z,95382
2023-03-26T04:21:56.288Z,95382
2023-03-26T04:22:56.254Z,95385
2023-03-26T04:23:56.308Z,95386
2023-03-26T04:24:56.294Z,95382
2023-03-26T04:25:56.511Z,95381
2023-03-26T04:26:56.283Z,95382
2023-03-26T04:27:56.282Z,95377
2023-03-26T04:29:56.264Z,95371
2023-03-26T04:30:56.288Z,95364
2023-03-26T04:31:56.315Z,95364
2023-03-26T04:32:56.327Z,95363
2023-03-26T04:33:56.330Z,95363
2023-03-26T04:34:56.318Z,95364
2023-03-26T04:35:56.580Z,95366
2023-03-26T04:36:56.323Z,95366
2023-03-26T04:37:56.358Z,95361
2023-03-26T04:38:56.291Z,95361
2023-03-26T04:39:56.310Z,95363
2023-03-26T04:40:56.322Z,95364
2023-03-26T04:41:56.350Z,95352
2023-03-26T04:42:56.321Z,95352
2023-03-26T04:44:56.349Z,95357
2023-03-26T04:45:56.523Z,95360
2023-03-26T04:46:56.384Z,95354
2023-03-26T04:47:56.383Z,95352
2023-03-26T04:48:56.356Z,95357
2023-03-26T04:49:56.324Z,95357
2023-03-26T04:50:56.347Z,95356
2023-03-26T04:51:56.364Z,95362
2023-03-26T04:52:56.348Z,95349
2023-03-26T04:53:56.357Z,95349
2023-03-26T04:54:56.378Z,95340
2023-03-26T04:55:56.599Z,95337
2023-03-26T04:56:56.428Z,95337
2023-03-26T04:57:56.384Z,95333
2023-03-26T04:58:56.365Z,95332
2023-03-26T04:59:56.373Z,95332
2023-03-26T05:00:56.408Z,95328
2023-03-26T05:01:56.404Z,95326
2023-03-26T05:02:56.486Z,95327
2023-03-26T05:03:56.387Z,95326
2023-03-26T05:04:56.399Z,95326
2023-03-26T05:05:56.573Z,95322
2023-03-26T05:06:56.390Z,95320
2023-03-26T05:07:56.410Z,95320
2023-03-26T05:08:56.379Z,95320
2023-03-26T05:09:56.406Z,95321
2023-03-26T05:10:56.570Z,95321
2023-03-26T05:12:56.398Z,95323
2023-03-26T05:13:56.386Z,95323
2023-03-26T05:14:56.370Z,95323
2023-03-26T05:15:56.406Z,95319
2023-03-26T05:16:56.408Z,95312
2023-03-26T05:17:56.410Z,95304
2023-03-26T05:18:56.428Z,95302
2023-03-26T05:19:56.468Z,95302
2023-03-26T05:20:56.800Z,95302
2023-03-26T05:21:56.435Z,95303
2023-03-26T05:22:56.428Z,95297
2023-03-26T05:23:56.435Z,95298
2023-03-26T05:24:56.463Z,95299
2023-03-26T05:25:56.450Z,95292
2023-03-26T05:26:56.458Z,95292
2023-03-26T05:27:56.487Z,95277
2023-03-26T05:28:56.428Z,95277
2023-03-26T05:29:56.441Z,95282
2023-03-26T05:30:56.709Z,95279
2023-03-26T05:32:56.634Z,95288
2023-03-26T05:33:56.496Z,95287
2023-03-26T05:34:56.429Z,95286
2023-03-26T05:35:56.459Z,95284
2023-03-26T05:37:56.502Z,95288
2023-03-26T05:38:56.459Z,95288
2023-03-26T05:39:56.459Z,95291
2023-03-26T05:40:56.611Z,95284
2023-03-26T05:41:56.503Z,95280
2023-03-26T05:42:56.506Z,95286
2023-03-26T05:43:56.482Z,95286
2023-03-26T05:44:56.485Z,95286
2023-03-26T05:45:56.512Z,95290
2023-03-26T05:46:56.506Z,95291
2023-03-26T05:47:56.544Z,95291
2023-03-26T05:48:56.488Z,95289
2023-03-26T05:49:56.523Z,95292
2023-03-26T05:50:56.944Z,95292
2023-03-26T05:51:56.507Z,95288
2023-03-26T05:52:56.479Z,95287
2023-03-26T05:53:56.512Z,95282
2023-03-26T05:54:56.523Z,95282
2023-03-26T05:55:56.557Z,95283
2023-03-26T05:56:56.577Z,95280
2023-03-26T05:57:56.498Z,95280
2023-03-26T05:58:56.489Z,95282
2023-03-26T05:59:56.518Z,95272
2023-03-26T06:00:56.576Z,95270
2023-03-26T06:01:56.514Z,95256
2023-03-26T06:02:57.219Z,95252
2023-03-26T06:03:56.850Z,95252
2023-03-26T06:04:56.583Z,95244
2023-03-26T06:05:56.547Z,95216
2023-03-26T06:06:56.506Z,95216
2023-03-26T06:07:56.509Z,95209
2023-03-26T06:09:02.195Z,95204
2023-03-26T06:09:56.536Z,95204
2023-03-26T06:10:56.808Z,95201
2023-03-26T06:11:56.525Z,95208
2023-03-26T06:12:56.534Z,95215
2023-03-26T06:13:56.604Z,95213
2023-03-26T06:14:56.536Z,95215
2023-03-26T06:15:56.604Z,95211
2023-03-26T06:16:56.548Z,95214
2023-03-26T06:17:56.600Z,95211
2023-03-26T06:18:57.737Z,95212
2023-03-26T06:19:56.540Z,95212
2023-03-26T06:21:56.662Z,95210
2023-03-26T06:23:56.781Z,95206
2023-03-26T06:24:56.613Z,95206
2023-03-26T06:25:56.576Z,95206
2023-03-26T06:27:56.638Z,95213
2023-03-26T06:28:56.619Z,95213
2023-03-26T06:29:56.718Z,95216
2023-03-26T06:30:56.960Z,95216
2023-03-26T06:32:56.765Z,95221
2023-03-26T06:33:56.727Z,95226
2023-03-26T06:34:56.647Z,95229
2023-03-26T06:35:56.749Z,95224
2023-03-26T06:36:56.655Z,95224
2023-03-26T06:37:56.635Z,95223
2023-03-26T06:38:56.745Z,95224
2023-03-26T06:39:56.756Z,95231
2023-03-26T06:40:56.899Z,95227
2023-03-26T06:41:56.705Z,95228
2023-03-26T06:43:08.557Z,95228
2023-03-26T06:43:56.751Z,95234
2023-03-26T06:44:56.741Z,95234
2023-03-26T06:45:56.742Z,95231
2023-03-26T06:46:56.816Z,95231
2023-03-26T06:47:56.791Z,95233
2023-03-26T06:48:56.742Z,95232
2023-03-26T06:49:56.735Z,95232
2023-03-26T06:50:56.741Z,95231
2023-03-26T06:51:56.733Z,95234
2023-03-26T06:52:56.767Z,95233
2023-03-26T06:53:56.721Z,95229
2023-03-26T06:54:56.715Z,95227
2023-03-26T06:55:56.835Z,95228
2023-03-26T06:56:56.814Z,95224
2023-03-26T06:57:56.770Z,95218
2023-03-26T06:58:56.755Z,95218
2023-03-26T06:59:56.827Z,95203
2023-03-26T07:00:57.016Z,95202
2023-03-26T07:01:56.761Z,95198
2023-03-26T07:02:56.800Z,95198
2023-03-26T07:03:56.863Z,95199
2023-03-26T07:04:56.790Z,95196
2023-03-26T07:05:56.851Z,95196
2023-03-26T07:06:56.750Z,95196
2023-03-26T07:07:56.755Z,95199
2023-03-26T07:08:56.822Z,95189
2023-03-26T07:09:56.855Z,95198
2023-03-26T07:10:57.058Z,95198
2023-03-26T07:11:56.777Z,95188
2023-03-26T07:12:56.854Z,95197
2023-03-26T07:13:56.862Z,95191
2023-03-26T07:14:58.402Z,95193
2023-03-26T07:15:56.859Z,95193
2023-03-26T07:16:56.794Z,95193
2023-03-26T07:17:56.873Z,95199
2023-03-26T07:18:56.738Z,95199
2023-03-26T07:19:56.796Z,95193
2023-03-26T07:20:57.062Z,95185
2023-03-26T07:21:56.817Z,95185
2023-03-26T07:22:56.840Z,95183
2023-03-26T07:23:56.840Z,95195
2023-03-26T07:24:56.808Z,95195
2023-03-26T07:25:56.888Z,95193
2023-03-26T07:26:56.840Z,95194
2023-03-26T07:27:56.896Z,95200
2023-03-26T07:29:04.037Z,95201
2023-03-26T07:29:56.844Z,95197
2023-03-26T07:30:57.177Z,95188
2023-03-26T07:31:56.871Z,95188
2023-03-26T07:32:56.923Z,95176
2023-03-26T07:33:56.891Z,95176
2023-03-26T07:34:56.856Z,95177
2023-03-26T07:35:56.858Z,95170
2023-03-26T07:38:56.889Z,95167
2023-03-26T07:39:56.920Z,95168
2023-03-26T07:40:56.984Z,95165
2023-03-26T07:41:57.106Z,95172
2023-03-26T07:42:56.909Z,95176
2023-03-26T07:43:56.904Z,95176
2023-03-26T07:44:56.839Z,95169
2023-03-26T07:45:56.943Z,95159
2023-03-26T07:46:56.827Z,95155
2023-03-26T07:47:57.006Z,95153
2023-03-26T07:48:56.945Z,95146
2023-03-26T07:50:57.100Z,95151
2023-03-26T07:51:56.987Z,95150
2023-03-26T07:52:56.797Z,95150
2023-03-26T07:53:56.789Z,95151
2023-03-26T07:54:56.830Z,95150
2023-03-26T07:55:56.811Z,95152
2023-03-26T07:56:58.861Z,95154
2023-03-26T07:57:56.850Z,95150
2023-03-26T07:58:56.831Z,95150
2023-03-26T07:59:56.878Z,95150
2023-03-26T08:00:57.084Z,95152
2023-03-26T08:01:56.950Z,95149
2023-03-26T08:02:57.200Z,95149
2023-03-26T08:03:56.888Z,95150
2023-03-26T08:04:56.962Z,95145
2023-03-26T08:05:56.813Z,95147
2023-03-26T08:06:56.832Z,95151
2023-03-26T08:07:56.846Z,95151
2023-03-26T08:08:56.847Z,95151
2023-03-26T08:09:56.868Z,95149
2023-03-26T08:10:57.169Z,95149
2023-03-26T08:11:56.825Z,95152
2023-03-26T08:12:56.851Z,95152
2023-03-26T08:13:57.553Z,95154
2023-03-26T08:14:56.880Z,95150
2023-03-26T08:15:56.889Z,95149
2023-03-26T08:16:56.889Z,95141
2023-03-26T08:17:56.886Z,95141
2023-03-26T08:18:56.848Z,95136
2023-03-26T08:19:56.890Z,95139
2023-03-26T08:20:57.082Z,95133
2023-03-26T08:21:56.850Z,95133
2023-03-26T08:22:56.896Z,95140
2023-03-26T08:23:56.886Z,95140
2023-03-26T08:24:56.843Z,95136
2023-03-26T08:25:56.879Z,95139
2023-03-26T08:26:56.869Z,95130
2023-03-26T08:27:56.916Z,95136
2023-03-26T08:28:56.872Z,95136
2023-03-26T08:29:56.885Z,95134
2023-03-26T08:30:57.315Z,95135
2023-03-26T08:31:56.896Z,95140
2023-03-26T08:32:56.937Z,95139
2023-03-26T08:33:56.898Z,95139
2023-03-26T08:34:56.938Z,95143
2023-03-26T08:35:56.925Z,95140
2023-03-26T08:36:56.923Z,95140
2023-03-26T08:37:56.876Z,95132
2023-03-26T08:38:56.893Z,95136
2023-03-26T08:39:56.919Z,95135
2023-03-26T08:41:56.896Z,95140
2023-03-26T08:42:56.905Z,95133
2023-03-26T08:43:56.908Z,95136
2023-03-26T08:44:56.902Z,95136
2023-03-26T08:45:56.941Z,95136
2023-03-26T08:46:56.936Z,95142
2023-03-26T08:47:56.980Z,95138
2023-03-26T08:48:56.889Z,95138
2023-03-26T08:49:56.942Z,95132
2023-03-26T08:50:57.286Z,95144
2023-03-26T08:51:56.909Z,95144
2023-03-26T08:52:56.954Z,95145
2023-03-26T08:53:56.941Z,95139
2023-03-26T08:54:57.476Z,95139
2023-03-26T08:55:56.933Z,95143
2023-03-26T08:56:56.973Z,95136
2023-03-26T08:57:56.938Z,95135
2023-03-26T08:58:56.986Z,95133
2023-03-26T08:59:56.938Z,95136
2023-03-26T09:00:57.214Z,95139
2023-03-26T09:01:57.006Z,95137
2023-03-26T09:02:57.045Z,95137
2023-03-26T09:03:57.001Z,95146
2023-03-26T09:04:56.934Z,95155
2023-03-26T09:05:56.954Z,95153
2023-03-26T09:06:56.955Z,95166
2023-03-26T09:07:56.949Z,95156
2023-03-26T09:08:57.023Z,95151
2023-03-26T09:09:56.976Z,95155
2023-03-26T09:10:57.198Z,95179
2023-03-26T09:11:57.093Z,95180
2023-03-26T09:12:56.989Z,95188
2023-03-26T09:13:56.973Z,95188
2023-03-26T09:14:56.962Z,95181
2023-03-26T09:15:57.037Z,95183
2023-03-26T09:16:57.044Z,95179
2023-03-26T09:17:58.164Z,95179
2023-03-26T09:18:56.991Z,95179
2023-03-26T09:19:57.020Z,95193
2023-03-26T09:20:57.334Z,95186
2023-03-26T09:21:57.002Z,95186
2023-03-26T09:22:57.012Z,95172
2023-03-26T09:23:56.989Z,95160
2023-03-26T09:24:57.010Z,95161
2023-03-26T09:25:57.025Z,95135
2023-03-26T09:26:57.024Z,95153
2023-03-26T09:27:57.019Z,95153
2023-03-26T09:28:57.038Z,95155
2023-03-26T09:29:57.007Z,95155
2023-03-26T09:30:57.230Z,95145
2023-03-26T09:31:57.194Z,95150
2023-03-26T09:32:57.069Z,95156
2023-03-26T09:34:57.084Z,95153
2023-03-26T09:35:57.120Z,95156
2023-03-26T09:36:57.056Z,95159
2023-03-26T09:37:58.181Z,95159
2023-03-26T09:38:57.057Z,95160
2023-03-26T09:39:57.122Z,95167
2023-03-26T09:40:57.307Z,95167
2023-03-26T09:41:57.120Z,95162
2023-03-26T09:42:57.056Z,95156
2023-03-26T09:43:57.052Z,95161
2023-03-26T09:44:57.129Z,95161
2023-03-26T09:45:57.135Z,95159
2023-03-26T09:46:57.054Z,95176
2023-03-26T09:47:57.166Z,95187
2023-03-26T09:48:57.121Z,95178
2023-03-26T09:50:57.409Z,95173
2023-03-26T09:51:57.140Z,95174
2023-03-26T09:52:57.059Z,95182
2023-03-26T09:53:57.067Z,95179
2023-03-26T09:54:57.075Z,95170
2023-03-26T09:55:57.194Z,95177
2023-03-26T09:56:57.176Z,95173
2023-03-26T09:57:57.142Z,95173
2023-03-26T09:58:57.099Z,95179
2023-03-26T09:59:57.159Z,95171
2023-03-26T10:01:57.097Z,95163
2023-03-26T10:02:57.150Z,95156
2023-03-26T10:03:57.103Z,95156
2023-03-26T10:04:57.124Z,95153
2023-03-26T10:05:57.106Z,95154
2023-03-26T10:06:57.118Z,95148
2023-03-26T10:07:57.153Z,95159
2023-03-26T10:08:57.167Z,95159
2023-03-26T10:09:57.173Z,95160
2023-03-26T10:10:57.316Z,95151
2023-03-26T10:11:57.213Z,95150
2023-03-26T10:13:08.127Z,95150
2023-03-26T10:13:57.116Z,95147
2023-03-26T10:14:57.115Z,95147
2023-03-26T10:15:57.178Z,95150
2023-03-26T10:16:57.183Z,95159
2023-03-26T10:17:57.255Z,95154
2023-03-26T10:18:57.180Z,95154
2023-03-26T10:19:57.139Z,95154
2023-03-26T10:20:57.213Z,95157
2023-03-26T10:21:57.187Z,95157
2023-03-26T10:22:57.146Z,95153
2023-03-26T10:23:57.153Z,95158
2023-03-26T10:24:57.181Z,95156
2023-03-26T10:25:57.207Z,95155
2023-03-26T10:27:57.166Z,95156
2023-03-26T10:28:57.168Z,95144
2023-03-26T10:30:57.562Z,95141
2023-03-26T10:31:57.210Z,95138
2023-03-26T10:32:57.236Z,95144
2023-03-26T10:33:57.230Z,95140
2023-03-26T10:34:57.157Z,95140
2023-03-26T10:36:57.198Z,95141
2023-03-26T10:37:57.213Z,95143
2023-03-26T10:38:57.171Z,95145
2023-03-26T10:40:57.349Z,95159
2023-03-26T10:41:57.194Z,95158
2023-03-26T10:42:57.208Z,95159
2023-03-26T10:44:07.354Z,95155
2023-03-26T10:44:57.209Z,95159
2023-03-26T10:45:57.282Z,95157
2023-03-26T10:46:57.188Z,95150
2023-03-26T10:47:57.224Z,95152
2023-03-26T10:48:57.248Z,95151
2023-03-26T10:49:57.278Z,95152
2023-03-26T10:50:57.434Z,95155
2023-03-26T10:51:57.276Z,95154
2023-03-26T10:52:57.263Z,95155
2023-03-26T10:53:57.310Z,95157
2023-03-26T10:54:57.248Z,95155
2023-03-26T10:55:57.237Z,95152
2023-03-26T10:56:57.232Z,95152
2023-03-26T10:57:57.229Z,95152
2023-03-26T10:58:57.313Z,95150
2023-03-26T11:01:57.419Z,95142
2023-03-26T11:02:57.297Z,95142
2023-03-26T11:03:57.232Z,95142
2023-03-26T11:05:57.275Z,95135
2023-03-26T11:06:57.308Z,95144
2023-03-26T11:07:57.311Z,95142
2023-03-26T11:08:57.282Z,95142
2023-03-26T11:09:57.270Z,95145
2023-03-26T11:10:57.473Z,95146
2023-03-26T11:12:57.298Z,95153
2023-03-26T11:13:57.295Z,95151
2023-03-26T11:14:57.323Z,95138
2023-03-26T11:15:57.320Z,95144
2023-03-26T11:16:57.299Z,95150
2023-03-26T11:17:57.319Z,95148
2023-03-26T11:19:57.355Z,95140
2023-03-26T11:21:18.001Z,95140
2023-03-26T11:21:57.312Z,95136
2023-03-26T11:22:57.310Z,95149
2023-03-26T11:24:04.747Z,95139
2023-03-26T11:24:57.348Z,95141
2023-03-26T11:25:57.345Z,95138
2023-03-26T11:26:57.340Z,95138
2023-03-26T11:27:57.319Z,95142
2023-03-26T11:29:04.105Z,95145
2023-03-26T11:29:57.387Z,95140
2023-03-26T11:30:57.510Z,95140
2023-03-26T11:31:57.339Z,95133
2023-03-26T11:32:57.388Z,95122
2023-03-26T11:33:57.346Z,95122
2023-03-26T11:34:57.361Z,95122
2023-03-26T11:35:57.390Z,95126
2023-03-26T11:36:57.343Z,95130
2023-03-26T11:37:57.363Z,95130
2023-03-26T11:38:57.391Z,95129
2023-03-26T11:40:57.807Z,95123
2023-03-26T11:41:57.347Z,95113
2023-03-26T11:43:57.405Z,95114
2023-03-26T11:44:57.383Z,95119
2023-03-26T11:45:57.402Z,95119
2023-03-26T11:46:57.456Z,95103
2023-03-26T11:47:57.462Z,95102
2023-03-26T11:48:57.410Z,95102
2023-03-26T11:50:57.776Z,95097
2023-03-26T11:51:57.369Z,95096
2023-03-26T11:52:57.386Z,95097
2023-03-26T11:53:57.434Z,95090
2023-03-26T11:54:57.423Z,95091
2023-03-26T11:55:57.443Z,95091
2023-03-26T11:57:05.995Z,95086
2023-03-26T11:57:57.373Z,95086
2023-03-26T11:58:57.413Z,95089
2023-03-26T11:59:58.130Z,95090
2023-03-26T12:00:57.638Z,95096
2023-03-26T12:01:57.450Z,95096
2023-03-26T12:02:57.411Z,95087
2023-03-26T12:03:57.478Z,95084
2023-03-26T12:04:57.545Z,95084
2023-03-26T12:05:57.422Z,95090
2023-03-26T12:06:57.447Z,95084
2023-03-26T12:07:57.937Z,95071
2023-03-26T12:08:57.481Z,95072
2023-03-26T12:09:57.439Z,95064
2023-03-26T12:11:57.453Z,95061
2023-03-26T12:12:57.466Z,95058
2023-03-26T12:13:57.481Z,95059
2023-03-26T12:14:57.452Z,95059
2023-03-26T12:15:57.479Z,95058
2023-03-26T12:16:57.558Z,95064
2023-03-26T12:17:57.436Z,95069
2023-03-26T12:18:57.458Z,95060
2023-03-26T12:19:57.466Z,95055
2023-03-26T12:20:57.438Z,95055
2023-03-26T12:21:57.470Z,95055
2023-03-26T12:22:57.446Z,95059
2023-03-26T12:24:57.454Z,95048
2023-03-26T12:25:57.498Z,95048
2023-03-26T12:26:57.496Z,95049
2023-03-26T12:27:57.465Z,95049
2023-03-26T12:28:57.464Z,95046
2023-03-26T12:29:57.477Z,95061
2023-03-26T12:30:57.731Z,95061
2023-03-26T12:31:57.639Z,95069
2023-03-26T12:32:57.489Z,95069
2023-03-26T12:33:59.025Z,95069
2023-03-26T12:34:57.461Z,95076
2023-03-26T12:35:57.469Z,95080
2023-03-26T12:36:57.529Z,95077
2023-03-26T12:37:57.525Z,95073
2023-03-26T12:39:16.381Z,95067
2023-03-26T12:40:07.089Z,95069
2023-03-26T12:40:57.466Z,95069
2023-03-26T12:43:19.755Z,95055
2023-03-26T12:44:46.609Z,95059
2023-03-26T12:44:52.999Z,95059
2023-03-26T12:44:59.570Z,95027
2023-03-26T12:47:45.993Z,95030
2023-03-26T12:47:57.075Z,95030
2023-03-26T12:48:03.573Z,95029
2023-03-26T12:48:57.591Z,95017
2023-03-26T12:49:57.520Z,95028
2023-03-26T12:50:58.028Z,95025
2023-03-26T12:51:57.579Z,95028
2023-03-26T12:52:57.541Z,95028
2023-03-26T12:53:57.542Z,95020
2023-03-26T12:54:57.572Z,95020
2023-03-26T12:55:57.565Z,95020
2023-03-26T12:57:11.963Z,95018
2023-03-26T12:57:57.562Z,95018
2023-03-26T13:00:57.836Z,95021
2023-03-26T13:01:57.604Z,95013
2023-03-26T13:02:57.650Z,95013
2023-03-26T13:03:57.567Z,95032
2023-03-26T13:05:05.530Z,95023
2023-03-26T13:05:57.572Z,95001
2023-03-26T13:07:00.556Z,95008
2023-03-26T13:07:57.580Z,95000
2023-03-26T13:08:57.530Z,95000
2023-03-26T13:09:57.536Z,95005
2023-03-26T13:10:57.780Z,95001
2023-03-26T13:11:57.593Z,94996
2023-03-26T13:12:57.599Z,95001
2023-03-26T13:13:57.585Z,95001
2023-03-26T13:14:57.638Z,94990
2023-03-26T13:15:57.572Z,94990
2023-03-26T13:16:57.640Z,94973
2023-03-26T13:18:57.587Z,94978
2023-03-26T13:19:57.579Z,94981
2023-03-26T13:20:57.702Z,94964
2023-03-26T13:21:57.593Z,94964
2023-03-26T13:22:57.607Z,94968
2023-03-26T13:23:57.605Z,94959
2023-03-26T13:24:57.661Z,94963
2023-03-26T13:25:57.636Z,94952
2023-03-26T13:26:57.600Z,94952
2023-03-26T13:27:57.598Z,94967
2023-03-26T13:28:57.679Z,94955
2023-03-26T13:29:57.704Z,94949
2023-03-26T13:30:57.943Z,94965
2023-03-26T13:31:57.672Z,94965
2023-03-26T13:32:57.724Z,94943
2023-03-26T13:33:57.619Z,94942
2023-03-26T13:34:57.682Z,94937
2023-03-26T13:36:10.224Z,94937
2023-03-26T13:36:57.643Z,94927
2023-03-26T13:37:57.637Z,94927
2023-03-26T13:38:59.150Z,94926
2023-03-26T13:39:57.662Z,94925
2023-03-26T13:40:57.846Z,94925
2023-03-26T13:41:57.638Z,94908
2023-03-26T13:42:57.673Z,94908
2023-03-26T13:43:57.657Z,94915
2023-03-26T13:45:05.072Z,94910
2023-03-26T13:45:57.710Z,94913
2023-03-26T13:46:57.696Z,94908